sensor_id;sensor_type;location;lat;lon;timestamp;temperature;humidity
73750;SHT30;62058;48.406;-4.514;2022-12-07T00:00:54;6.28;77.17
73750;SHT30;62058;48.406;-4.514;2022-12-07T00:03:19;6.32;76.73
73750;SHT30;62058;48.406;-4.514;2022-12-07T00:05:45;6.32;76.66
73750;SHT30;62058;48.406;-4.514;2022-12-07T00:08:10;6.33;76.52
73750;SHT30;62058;48.406;-4.514;2022-12-07T00:10:35;6.30;76.89
73750;SHT30;62058;48.406;-4.514;2022-12-07T00:13:01;6.26;76.93
73750;SHT30;62058;48.406;-4.514;2022-12-07T00:15:26;6.19;77.49
73750;SHT30;62058;48.406;-4.514;2022-12-07T00:17:52;6.19;77.56
73750;SHT30;62058;48.406;-4.514;2022-12-07T00:20:17;6.21;77.33
73750;SHT30;62058;48.406;-4.514;2022-12-07T00:22:42;6.18;77.57
73750;SHT30;62058;48.406;-4.514;2022-12-07T00:25:08;6.18;77.49
73750;SHT30;62058;48.406;-4.514;2022-12-07T00:27:33;6.16;77.06
73750;SHT30;62058;48.406;-4.514;2022-12-07T00:29:59;6.12;77.24
73750;SHT30;62058;48.406;-4.514;2022-12-07T00:32:24;6.05;77.74
73750;SHT30;62058;48.406;-4.514;2022-12-07T00:34:49;6.11;77.58
73750;SHT30;62058;48.406;-4.514;2022-12-07T00:37:15;6.13;77.68
73750;SHT30;62058;48.406;-4.514;2022-12-07T00:39:40;6.19;77.09
73750;SHT30;62058;48.406;-4.514;2022-12-07T00:42:06;6.30;76.86
73750;SHT30;62058;48.406;-4.514;2022-12-07T00:44:31;6.39;76.69
73750;SHT30;62058;48.406;-4.514;2022-12-07T00:46:56;6.50;76.73
73750;SHT30;62058;48.406;-4.514;2022-12-07T00:49:22;6.56;76.70
73750;SHT30;62058;48.406;-4.514;2022-12-07T00:51:48;6.64;76.47
73750;SHT30;62058;48.406;-4.514;2022-12-07T00:54:14;6.74;76.33
73750;SHT30;62058;48.406;-4.514;2022-12-07T00:56:39;6.81;76.41
73750;SHT30;62058;48.406;-4.514;2022-12-07T00:59:05;6.81;75.79
73750;SHT30;62058;48.406;-4.514;2022-12-07T01:01:34;6.84;75.43
73750;SHT30;62058;48.406;-4.514;2022-12-07T01:04:00;6.85;75.42
73750;SHT30;62058;48.406;-4.514;2022-12-07T01:06:27;6.88;75.32
73750;SHT30;62058;48.406;-4.514;2022-12-07T01:08:53;6.93;75.41
73750;SHT30;62058;48.406;-4.514;2022-12-07T01:11:23;7.00;75.40
73750;SHT30;62058;48.406;-4.514;2022-12-07T01:13:53;7.01;75.30
73750;SHT30;62058;48.406;-4.514;2022-12-07T01:16:21;7.03;75.32
73750;SHT30;62058;48.406;-4.514;2022-12-07T01:18:50;7.05;75.05
73750;SHT30;62058;48.406;-4.514;2022-12-07T01:21:19;7.14;75.08
73750;SHT30;62058;48.406;-4.514;2022-12-07T01:23:46;7.17;74.96
73750;SHT30;62058;48.406;-4.514;2022-12-07T01:26:14;7.17;75.01
73750;SHT30;62058;48.406;-4.514;2022-12-07T01:28:40;7.22;75.04
73750;SHT30;62058;48.406;-4.514;2022-12-07T01:31:10;7.21;75.03
73750;SHT30;62058;48.406;-4.514;2022-12-07T01:33:38;7.21;74.83
73750;SHT30;62058;48.406;-4.514;2022-12-07T01:36:06;7.27;74.87
73750;SHT30;62058;48.406;-4.514;2022-12-07T01:38:32;7.27;74.88
73750;SHT30;62058;48.406;-4.514;2022-12-07T01:40:59;7.25;74.92
73750;SHT30;62058;48.406;-4.514;2022-12-07T01:43:26;7.24;75.09
73750;SHT30;62058;48.406;-4.514;2022-12-07T01:45:52;7.19;74.90
73750;SHT30;62058;48.406;-4.514;2022-12-07T01:48:25;7.15;74.97
73750;SHT30;62058;48.406;-4.514;2022-12-07T01:50:52;7.08;74.97
73750;SHT30;62058;48.406;-4.514;2022-12-07T01:53:19;7.01;75.16
73750;SHT30;62058;48.406;-4.514;2022-12-07T01:55:47;6.98;75.33
73750;SHT30;62058;48.406;-4.514;2022-12-07T01:58:15;6.97;75.38
73750;SHT30;62058;48.406;-4.514;2022-12-07T02:00:41;6.94;75.49
73750;SHT30;62058;48.406;-4.514;2022-12-07T02:05:40;6.79;75.69
73750;SHT30;62058;48.406;-4.514;2022-12-07T02:08:07;6.73;75.48
73750;SHT30;62058;48.406;-4.514;2022-12-07T02:10:33;6.69;75.46
73750;SHT30;62058;48.406;-4.514;2022-12-07T02:13:03;6.70;75.48
73750;SHT30;62058;48.406;-4.514;2022-12-07T02:20:57;6.95;74.61
73750;SHT30;62058;48.406;-4.514;2022-12-07T02:28:33;7.17;74.05
73750;SHT30;62058;48.406;-4.514;2022-12-07T02:31:06;7.21;74.17
73750;SHT30;62058;48.406;-4.514;2022-12-07T02:33:37;7.24;73.64
73750;SHT30;62058;48.406;-4.514;2022-12-07T02:36:32;7.27;73.25
73750;SHT30;62058;48.406;-4.514;2022-12-07T02:39:11;7.31;73.87
73750;SHT30;62058;48.406;-4.514;2022-12-07T02:41:43;7.35;72.88
73750;SHT30;62058;48.406;-4.514;2022-12-07T02:44:14;7.44;72.89
73750;SHT30;62058;48.406;-4.514;2022-12-07T02:46:58;7.49;73.04
73750;SHT30;62058;48.406;-4.514;2022-12-07T02:49:26;7.56;72.95
73750;SHT30;62058;48.406;-4.514;2022-12-07T02:51:52;7.59;73.18
73750;SHT30;62058;48.406;-4.514;2022-12-07T02:54:20;7.65;72.68
73750;SHT30;62058;48.406;-4.514;2022-12-07T02:56:50;7.63;72.96
73750;SHT30;62058;48.406;-4.514;2022-12-07T03:15:57;7.70;72.46
73750;SHT30;62058;48.406;-4.514;2022-12-07T03:18:26;7.72;72.72
73750;SHT30;62058;48.406;-4.514;2022-12-07T03:20:56;7.73;72.70
73750;SHT30;62058;48.406;-4.514;2022-12-07T03:23:23;7.76;72.67
73750;SHT30;62058;48.406;-4.514;2022-12-07T03:25:55;7.75;73.20
73750;SHT30;62058;48.406;-4.514;2022-12-07T03:28:24;7.75;72.97
73750;SHT30;62058;48.406;-4.514;2022-12-07T03:31:03;7.76;73.02
73750;SHT30;62058;48.406;-4.514;2022-12-07T03:33:46;7.80;73.22
73750;SHT30;62058;48.406;-4.514;2022-12-07T03:36:34;7.78;73.01
73750;SHT30;62058;48.406;-4.514;2022-12-07T03:39:25;7.78;73.13
73750;SHT30;62058;48.406;-4.514;2022-12-07T03:41:52;7.75;72.41
73750;SHT30;62058;48.406;-4.514;2022-12-07T03:44:18;7.78;72.37
73750;SHT30;62058;48.406;-4.514;2022-12-07T03:49:32;7.80;73.15
73750;SHT30;62058;48.406;-4.514;2022-12-07T03:52:24;7.76;72.75
73750;SHT30;62058;48.406;-4.514;2022-12-07T03:54:56;7.79;71.70
73750;SHT30;62058;48.406;-4.514;2022-12-07T03:57:25;7.82;71.59
73750;SHT30;62058;48.406;-4.514;2022-12-07T03:59:51;7.85;72.04
73750;SHT30;62058;48.406;-4.514;2022-12-07T04:02:18;7.86;71.93
73750;SHT30;62058;48.406;-4.514;2022-12-07T04:04:45;7.87;72.42
73750;SHT30;62058;48.406;-4.514;2022-12-07T04:07:11;7.87;72.62
73750;SHT30;62058;48.406;-4.514;2022-12-07T04:09:36;7.83;72.92
73750;SHT30;62058;48.406;-4.514;2022-12-07T04:12:01;7.82;72.69
73750;SHT30;62058;48.406;-4.514;2022-12-07T04:14:27;7.82;72.66
73750;SHT30;62058;48.406;-4.514;2022-12-07T04:16:55;7.82;72.78
73750;SHT30;62058;48.406;-4.514;2022-12-07T04:19:29;7.79;72.96
73750;SHT30;62058;48.406;-4.514;2022-12-07T04:21:56;7.82;72.75
73750;SHT30;62058;48.406;-4.514;2022-12-07T04:24:22;7.79;72.86
73750;SHT30;62058;48.406;-4.514;2022-12-07T04:26:48;7.78;72.70
73750;SHT30;62058;48.406;-4.514;2022-12-07T04:29:14;7.79;72.73
73750;SHT30;62058;48.406;-4.514;2022-12-07T04:31:40;7.80;72.67
73750;SHT30;62058;48.406;-4.514;2022-12-07T04:34:06;7.78;73.12
73750;SHT30;62058;48.406;-4.514;2022-12-07T04:36:33;7.79;72.59
73750;SHT30;62058;48.406;-4.514;2022-12-07T04:38:59;7.78;73.17
73750;SHT30;62058;48.406;-4.514;2022-12-07T04:41:24;7.82;73.02
73750;SHT30;62058;48.406;-4.514;2022-12-07T04:43:57;7.83;73.10
73750;SHT30;62058;48.406;-4.514;2022-12-07T04:46:24;7.82;73.14
73750;SHT30;62058;48.406;-4.514;2022-12-07T04:48:51;7.79;73.08
73750;SHT30;62058;48.406;-4.514;2022-12-07T04:51:20;7.75;72.98
73750;SHT30;62058;48.406;-4.514;2022-12-07T04:53:46;7.66;73.30
73750;SHT30;62058;48.406;-4.514;2022-12-07T04:56:11;7.59;73.62
73750;SHT30;62058;48.406;-4.514;2022-12-07T04:58:36;7.49;73.84
73750;SHT30;62058;48.406;-4.514;2022-12-07T05:01:02;7.45;74.03
73750;SHT30;62058;48.406;-4.514;2022-12-07T05:03:27;7.44;74.02
73750;SHT30;62058;48.406;-4.514;2022-12-07T05:05:52;7.41;73.95
73750;SHT30;62058;48.406;-4.514;2022-12-07T05:08:18;7.36;73.99
73750;SHT30;62058;48.406;-4.514;2022-12-07T05:10:43;7.29;74.06
73750;SHT30;62058;48.406;-4.514;2022-12-07T05:13:09;7.28;74.04
73750;SHT30;62058;48.406;-4.514;2022-12-07T05:15:34;7.29;74.31
73750;SHT30;62058;48.406;-4.514;2022-12-07T05:17:59;7.24;74.37
73750;SHT30;62058;48.406;-4.514;2022-12-07T05:20:25;7.24;74.42
73750;SHT30;62058;48.406;-4.514;2022-12-07T05:22:50;7.27;74.24
73750;SHT30;62058;48.406;-4.514;2022-12-07T05:25:16;7.32;74.61
73750;SHT30;62058;48.406;-4.514;2022-12-07T05:27:41;7.34;74.72
73750;SHT30;62058;48.406;-4.514;2022-12-07T05:30:07;7.36;74.25
73750;SHT30;62058;48.406;-4.514;2022-12-07T05:32:32;7.41;74.18
73750;SHT30;62058;48.406;-4.514;2022-12-07T05:34:58;7.44;74.05
73750;SHT30;62058;48.406;-4.514;2022-12-07T05:37:23;7.49;74.08
73750;SHT30;62058;48.406;-4.514;2022-12-07T05:39:49;7.52;74.09
73750;SHT30;62058;48.406;-4.514;2022-12-07T05:42:14;7.51;74.06
73750;SHT30;62058;48.406;-4.514;2022-12-07T05:44:44;7.58;73.95
73750;SHT30;62058;48.406;-4.514;2022-12-07T05:47:11;7.59;73.71
73750;SHT30;62058;48.406;-4.514;2022-12-07T05:49:37;7.61;73.61
73750;SHT30;62058;48.406;-4.514;2022-12-07T05:52:03;7.59;73.44
73750;SHT30;62058;48.406;-4.514;2022-12-07T05:54:28;7.63;73.51
73750;SHT30;62058;48.406;-4.514;2022-12-07T05:56:54;7.69;73.67
73750;SHT30;62058;48.406;-4.514;2022-12-07T05:59:19;7.69;73.82
73750;SHT30;62058;48.406;-4.514;2022-12-07T06:01:58;7.69;73.95
73750;SHT30;62058;48.406;-4.514;2022-12-07T06:04:27;7.68;73.95
73750;SHT30;62058;48.406;-4.514;2022-12-07T06:06:53;7.63;74.14
73750;SHT30;62058;48.406;-4.514;2022-12-07T06:09:20;7.52;74.38
73750;SHT30;62058;48.406;-4.514;2022-12-07T06:11:45;7.46;74.36
73750;SHT30;62058;48.406;-4.514;2022-12-07T06:14:29;7.35;74.60
73750;SHT30;62058;48.406;-4.514;2022-12-07T06:16:55;7.27;74.72
73750;SHT30;62058;48.406;-4.514;2022-12-07T06:19:20;7.25;74.63
73750;SHT30;62058;48.406;-4.514;2022-12-07T06:21:46;7.24;74.82
73750;SHT30;62058;48.406;-4.514;2022-12-07T06:24:13;7.24;75.32
73750;SHT30;62058;48.406;-4.514;2022-12-07T06:26:39;7.28;75.16
73750;SHT30;62058;48.406;-4.514;2022-12-07T06:29:04;7.34;75.18
73750;SHT30;62058;48.406;-4.514;2022-12-07T06:31:30;7.38;75.00
73750;SHT30;62058;48.406;-4.514;2022-12-07T06:33:59;7.45;74.78
73750;SHT30;62058;48.406;-4.514;2022-12-07T06:36:25;7.48;74.82
73750;SHT30;62058;48.406;-4.514;2022-12-07T06:38:51;7.54;75.06
73750;SHT30;62058;48.406;-4.514;2022-12-07T06:41:16;7.56;74.75
73750;SHT30;62058;48.406;-4.514;2022-12-07T06:43:42;7.55;74.09
73750;SHT30;62058;48.406;-4.514;2022-12-07T06:46:07;7.55;74.21
73750;SHT30;62058;48.406;-4.514;2022-12-07T06:48:32;7.54;73.81
73750;SHT30;62058;48.406;-4.514;2022-12-07T06:50:58;7.52;73.42
73750;SHT30;62058;48.406;-4.514;2022-12-07T06:53:23;7.51;73.43
73750;SHT30;62058;48.406;-4.514;2022-12-07T06:55:49;7.46;73.65
73750;SHT30;62058;48.406;-4.514;2022-12-07T06:58:14;7.46;73.41
73750;SHT30;62058;48.406;-4.514;2022-12-07T07:00:40;7.52;73.08
73750;SHT30;62058;48.406;-4.514;2022-12-07T07:03:05;7.52;72.46
73750;SHT30;62058;48.406;-4.514;2022-12-07T07:05:31;7.56;72.88
73750;SHT30;62058;48.406;-4.514;2022-12-07T07:07:56;7.58;72.78
73750;SHT30;62058;48.406;-4.514;2022-12-07T07:10:22;7.68;73.01
73750;SHT30;62058;48.406;-4.514;2022-12-07T07:12:47;7.70;72.70
73750;SHT30;62058;48.406;-4.514;2022-12-07T07:15:13;7.72;72.14
73750;SHT30;62058;48.406;-4.514;2022-12-07T07:17:38;7.73;72.55
73750;SHT30;62058;48.406;-4.514;2022-12-07T07:20:04;7.79;72.45
73750;SHT30;62058;48.406;-4.514;2022-12-07T07:22:30;7.80;71.47
73750;SHT30;62058;48.406;-4.514;2022-12-07T07:24:55;7.80;71.11
73750;SHT30;62058;48.406;-4.514;2022-12-07T07:27:21;7.79;71.42
73750;SHT30;62058;48.406;-4.514;2022-12-07T07:29:46;7.86;71.38
73750;SHT30;62058;48.406;-4.514;2022-12-07T07:32:11;7.87;72.22
73750;SHT30;62058;48.406;-4.514;2022-12-07T07:34:37;7.87;72.27
73750;SHT30;62058;48.406;-4.514;2022-12-07T07:37:03;7.89;72.29
73750;SHT30;62058;48.406;-4.514;2022-12-07T07:39:28;7.91;71.69
73750;SHT30;62058;48.406;-4.514;2022-12-07T07:41:54;7.94;71.48
73750;SHT30;62058;48.406;-4.514;2022-12-07T07:44:19;7.99;72.02
73750;SHT30;62058;48.406;-4.514;2022-12-07T07:46:44;8.01;72.07
73750;SHT30;62058;48.406;-4.514;2022-12-07T07:49:10;7.94;71.57
73750;SHT30;62058;48.406;-4.514;2022-12-07T07:51:36;7.86;72.22
73750;SHT30;62058;48.406;-4.514;2022-12-07T07:54:02;7.83;72.49
73750;SHT30;62058;48.406;-4.514;2022-12-07T07:56:27;7.85;72.49
73750;SHT30;62058;48.406;-4.514;2022-12-07T07:58:53;7.87;72.10
73750;SHT30;62058;48.406;-4.514;2022-12-07T08:01:18;7.90;71.79
73750;SHT30;62058;48.406;-4.514;2022-12-07T08:03:46;7.90;72.08
73750;SHT30;62058;48.406;-4.514;2022-12-07T08:06:11;7.91;71.79
73750;SHT30;62058;48.406;-4.514;2022-12-07T08:08:37;7.96;71.68
73750;SHT30;62058;48.406;-4.514;2022-12-07T08:11:06;7.94;72.05
73750;SHT30;62058;48.406;-4.514;2022-12-07T08:13:32;7.99;71.66
73750;SHT30;62058;48.406;-4.514;2022-12-07T08:15:57;8.00;71.70
73750;SHT30;62058;48.406;-4.514;2022-12-07T08:18:23;8.07;71.65
73750;SHT30;62058;48.406;-4.514;2022-12-07T08:20:48;8.09;71.47
73750;SHT30;62058;48.406;-4.514;2022-12-07T08:23:14;8.10;71.37
73750;SHT30;62058;48.406;-4.514;2022-12-07T08:25:40;8.13;71.15
73750;SHT30;62058;48.406;-4.514;2022-12-07T08:28:06;8.17;71.74
73750;SHT30;62058;48.406;-4.514;2022-12-07T08:30:32;8.24;71.90
73750;SHT30;62058;48.406;-4.514;2022-12-07T08:32:58;8.29;71.63
73750;SHT30;62058;48.406;-4.514;2022-12-07T08:35:24;8.23;71.14
73750;SHT30;62058;48.406;-4.514;2022-12-07T08:37:50;8.24;71.38
73750;SHT30;62058;48.406;-4.514;2022-12-07T08:40:15;8.27;71.60
73750;SHT30;62058;48.406;-4.514;2022-12-07T08:42:42;8.31;71.84
73750;SHT30;62058;48.406;-4.514;2022-12-07T08:45:10;8.33;71.45
73750;SHT30;62058;48.406;-4.514;2022-12-07T08:47:40;8.38;71.30
73750;SHT30;62058;48.406;-4.514;2022-12-07T08:50:08;8.40;70.98
73750;SHT30;62058;48.406;-4.514;2022-12-07T08:52:35;8.45;71.33
73750;SHT30;62058;48.406;-4.514;2022-12-07T08:55:03;8.51;71.11
73750;SHT30;62058;48.406;-4.514;2022-12-07T08:57:30;8.57;70.79
73750;SHT30;62058;48.406;-4.514;2022-12-07T08:59:55;8.62;70.43
73750;SHT30;62058;48.406;-4.514;2022-12-07T09:02:21;8.68;70.54
73750;SHT30;62058;48.406;-4.514;2022-12-07T09:04:46;8.78;71.05
73750;SHT30;62058;48.406;-4.514;2022-12-07T09:07:12;8.79;70.10
73750;SHT30;62058;48.406;-4.514;2022-12-07T09:09:37;8.78;70.02
73750;SHT30;62058;48.406;-4.514;2022-12-07T09:12:03;8.81;69.59
73750;SHT30;62058;48.406;-4.514;2022-12-07T09:14:28;8.86;69.71
73750;SHT30;62058;48.406;-4.514;2022-12-07T09:16:54;8.95;69.83
73750;SHT30;62058;48.406;-4.514;2022-12-07T09:19:19;9.02;69.76
73750;SHT30;62058;48.406;-4.514;2022-12-07T09:21:44;9.11;69.63
73750;SHT30;62058;48.406;-4.514;2022-12-07T09:24:12;9.16;69.51
73750;SHT30;62058;48.406;-4.514;2022-12-07T09:26:37;9.22;69.74
73750;SHT30;62058;48.406;-4.514;2022-12-07T09:29:04;9.27;69.48
73750;SHT30;62058;48.406;-4.514;2022-12-07T09:31:30;9.35;69.40
73750;SHT30;62058;48.406;-4.514;2022-12-07T09:33:57;9.40;68.23
73750;SHT30;62058;48.406;-4.514;2022-12-07T09:36:23;9.47;69.49
73750;SHT30;62058;48.406;-4.514;2022-12-07T09:38:48;9.48;70.15
73750;SHT30;62058;48.406;-4.514;2022-12-07T09:41:14;9.56;69.83
73750;SHT30;62058;48.406;-4.514;2022-12-07T09:43:41;9.60;69.49
73750;SHT30;62058;48.406;-4.514;2022-12-07T09:46:13;9.66;68.70
73750;SHT30;62058;48.406;-4.514;2022-12-07T09:48:39;9.69;68.79
73750;SHT30;62058;48.406;-4.514;2022-12-07T09:51:18;9.73;68.97
73750;SHT30;62058;48.406;-4.514;2022-12-07T09:53:45;9.81;68.80
73750;SHT30;62058;48.406;-4.514;2022-12-07T09:56:15;9.87;68.31
73750;SHT30;62058;48.406;-4.514;2022-12-07T09:58:41;9.98;68.39
73750;SHT30;62058;48.406;-4.514;2022-12-07T10:03:34;10.11;68.15
73750;SHT30;62058;48.406;-4.514;2022-12-07T10:06:01;10.15;67.63
73750;SHT30;62058;48.406;-4.514;2022-12-07T10:08:26;10.25;67.34
73750;SHT30;62058;48.406;-4.514;2022-12-07T10:10:54;10.35;66.64
73750;SHT30;62058;48.406;-4.514;2022-12-07T10:13:41;10.46;66.83
73750;SHT30;62058;48.406;-4.514;2022-12-07T10:16:42;10.55;65.70
73750;SHT30;62058;48.406;-4.514;2022-12-07T10:19:24;10.69;64.79
73750;SHT30;62058;48.406;-4.514;2022-12-07T10:24:29;10.92;63.89
73750;SHT30;62058;48.406;-4.514;2022-12-07T10:26:55;11.00;63.46
73750;SHT30;62058;48.406;-4.514;2022-12-07T10:32:35;11.16;65.44
73750;SHT30;62058;48.406;-4.514;2022-12-07T10:35:28;11.24;63.74
73750;SHT30;62058;48.406;-4.514;2022-12-07T10:37:56;11.22;61.60
73750;SHT30;62058;48.406;-4.514;2022-12-07T10:40:43;11.13;62.43
73750;SHT30;62058;48.406;-4.514;2022-12-07T10:48:28;11.30;60.00
73750;SHT30;62058;48.406;-4.514;2022-12-07T10:56:40;11.64;62.35
73750;SHT30;62058;48.406;-4.514;2022-12-07T11:08:16;11.85;59.05
73750;SHT30;62058;48.406;-4.514;2022-12-07T11:11:05;11.86;62.34
73750;SHT30;62058;48.406;-4.514;2022-12-07T11:13:36;11.94;59.67
73750;SHT30;62058;48.406;-4.514;2022-12-07T11:18:52;12.15;59.12
73750;SHT30;62058;48.406;-4.514;2022-12-07T11:21:37;12.25;60.77
73750;SHT30;62058;48.406;-4.514;2022-12-07T11:24:18;12.37;58.15
73750;SHT30;62058;48.406;-4.514;2022-12-07T11:27:20;12.46;58.23
73750;SHT30;62058;48.406;-4.514;2022-12-07T11:35:29;12.66;56.89
73750;SHT30;62058;48.406;-4.514;2022-12-07T11:38:20;12.77;56.63
73750;SHT30;62058;48.406;-4.514;2022-12-07T11:40:49;12.89;56.58
73750;SHT30;62058;48.406;-4.514;2022-12-07T11:43:21;13.00;59.42
73750;SHT30;62058;48.406;-4.514;2022-12-07T11:46:06;13.15;56.07
73750;SHT30;62058;48.406;-4.514;2022-12-07T11:48:38;13.22;58.86
73750;SHT30;62058;48.406;-4.514;2022-12-07T11:51:09;13.20;56.36
73750;SHT30;62058;48.406;-4.514;2022-12-07T11:56:20;13.07;57.20
73750;SHT30;62058;48.406;-4.514;2022-12-07T11:59:19;13.06;58.40
73750;SHT30;62058;48.406;-4.514;2022-12-07T12:01:56;13.07;56.06
73750;SHT30;62058;48.406;-4.514;2022-12-07T12:04:51;13.10;56.12
73750;SHT30;62058;48.406;-4.514;2022-12-07T12:07:25;13.15;56.29
73750;SHT30;62058;48.406;-4.514;2022-12-07T12:10:17;13.22;58.23
73750;SHT30;62058;48.406;-4.514;2022-12-07T12:18:52;13.45;55.62
73750;SHT30;62058;48.406;-4.514;2022-12-07T12:21:28;13.55;54.76
73750;SHT30;62058;48.406;-4.514;2022-12-07T12:24:02;13.61;55.12
73750;SHT30;62058;48.406;-4.514;2022-12-07T12:26:31;13.71;55.37
73750;SHT30;62058;48.406;-4.514;2022-12-07T12:29:05;13.83;54.49
73750;SHT30;62058;48.406;-4.514;2022-12-07T12:31:46;13.95;54.87
73750;SHT30;62058;48.406;-4.514;2022-12-07T12:36:56;14.10;53.43
73750;SHT30;62058;48.406;-4.514;2022-12-07T12:39:22;14.19;53.33
73750;SHT30;62058;48.406;-4.514;2022-12-07T12:51:47;14.63;52.20
73750;SHT30;62058;48.406;-4.514;2022-12-07T12:59:31;14.38;50.51
73750;SHT30;62058;48.406;-4.514;2022-12-07T13:15:39;14.61;52.51
73750;SHT30;62058;48.406;-4.514;2022-12-07T13:20:51;14.61;52.54
73750;SHT30;62058;48.406;-4.514;2022-12-07T13:23:20;14.57;51.41
73750;SHT30;62058;48.406;-4.514;2022-12-07T13:25:54;14.54;55.74
73750;SHT30;62058;48.406;-4.514;2022-12-07T13:28:22;14.70;52.84
73750;SHT30;62058;48.406;-4.514;2022-12-07T13:31:03;15.90;53.69
73750;SHT30;62058;48.406;-4.514;2022-12-07T13:33:30;16.91;52.00
73750;SHT30;62058;48.406;-4.514;2022-12-07T13:35:56;17.13;49.02
73750;SHT30;62058;48.406;-4.514;2022-12-07T13:38:31;16.96;48.26
73750;SHT30;62058;48.406;-4.514;2022-12-07T13:43:48;16.28;50.58
73750;SHT30;62058;48.406;-4.514;2022-12-07T13:46:13;15.97;49.10
73750;SHT30;62058;48.406;-4.514;2022-12-07T13:51:21;15.52;51.65
73750;SHT30;62058;48.406;-4.514;2022-12-07T13:53:49;15.28;49.69
73750;SHT30;62058;48.406;-4.514;2022-12-07T13:56:15;15.12;51.03
73750;SHT30;62058;48.406;-4.514;2022-12-07T13:58:41;15.01;51.23
73750;SHT30;62058;48.406;-4.514;2022-12-07T14:01:08;14.94;51.60
73750;SHT30;62058;48.406;-4.514;2022-12-07T14:03:35;14.89;52.23
73750;SHT30;62058;48.406;-4.514;2022-12-07T14:06:18;15.07;51.90
73750;SHT30;62058;48.406;-4.514;2022-12-07T14:08:45;15.39;51.62
73750;SHT30;62058;48.406;-4.514;2022-12-07T14:11:18;15.27;51.02
73750;SHT30;62058;48.406;-4.514;2022-12-07T14:14:04;15.29;51.67
73750;SHT30;62058;48.406;-4.514;2022-12-07T14:16:35;15.69;51.01
73750;SHT30;62058;48.406;-4.514;2022-12-07T14:19:04;15.45;50.88
73750;SHT30;62058;48.406;-4.514;2022-12-07T14:21:33;15.19;51.36
73750;SHT30;62058;48.406;-4.514;2022-12-07T14:26:33;14.88;51.64
73750;SHT30;62058;48.406;-4.514;2022-12-07T14:31:46;15.36;52.81
73750;SHT30;62058;48.406;-4.514;2022-12-07T14:34:12;15.43;52.75
73750;SHT30;62058;48.406;-4.514;2022-12-07T14:36:37;15.25;51.12
73750;SHT30;62058;48.406;-4.514;2022-12-07T14:39:03;15.07;51.44
73750;SHT30;62058;48.406;-4.514;2022-12-07T14:41:28;14.98;53.99
73750;SHT30;62058;48.406;-4.514;2022-12-07T14:44:12;14.77;52.08
73750;SHT30;62058;48.406;-4.514;2022-12-07T14:46:38;15.12;52.82
73750;SHT30;62058;48.406;-4.514;2022-12-07T14:49:03;16.61;50.92
73750;SHT30;62058;48.406;-4.514;2022-12-07T14:51:28;18.25;48.34
73750;SHT30;62058;48.406;-4.514;2022-12-07T14:53:54;19.20;46.92
73750;SHT30;62058;48.406;-4.514;2022-12-07T14:56:20;19.88;43.47
73750;SHT30;62058;48.406;-4.514;2022-12-07T14:58:45;20.80;43.48
73750;SHT30;62058;48.406;-4.514;2022-12-07T15:01:13;20.35;40.36
73750;SHT30;62058;48.406;-4.514;2022-12-07T15:03:38;18.92;46.06
73750;SHT30;62058;48.406;-4.514;2022-12-07T15:06:05;17.86;44.97
73750;SHT30;62058;48.406;-4.514;2022-12-07T15:08:31;17.13;47.76
73750;SHT30;62058;48.406;-4.514;2022-12-07T15:10:56;16.52;47.24
73750;SHT30;62058;48.406;-4.514;2022-12-07T15:13:22;16.09;49.14
73750;SHT30;62058;48.406;-4.514;2022-12-07T15:16:10;15.87;49.34
73750;SHT30;62058;48.406;-4.514;2022-12-07T15:18:35;15.63;51.27
73750;SHT30;62058;48.406;-4.514;2022-12-07T15:21:01;15.27;51.80
73750;SHT30;62058;48.406;-4.514;2022-12-07T15:23:26;14.89;54.08
73750;SHT30;62058;48.406;-4.514;2022-12-07T15:25:51;14.56;53.56
73750;SHT30;62058;48.406;-4.514;2022-12-07T15:28:17;14.30;54.76
73750;SHT30;62058;48.406;-4.514;2022-12-07T15:30:44;14.06;55.57
73750;SHT30;62058;48.406;-4.514;2022-12-07T15:33:10;13.87;55.92
73750;SHT30;62058;48.406;-4.514;2022-12-07T15:35:43;13.62;56.32
73750;SHT30;62058;48.406;-4.514;2022-12-07T15:38:09;13.50;56.31
73750;SHT30;62058;48.406;-4.514;2022-12-07T15:40:35;13.32;56.87
73750;SHT30;62058;48.406;-4.514;2022-12-07T15:43:01;13.12;57.13
73750;SHT30;62058;48.406;-4.514;2022-12-07T15:45:26;12.90;57.54
73750;SHT30;62058;48.406;-4.514;2022-12-07T15:47:52;12.70;57.50
73750;SHT30;62058;48.406;-4.514;2022-12-07T15:50:17;12.55;58.28
73750;SHT30;62058;48.406;-4.514;2022-12-07T15:52:43;12.40;58.52
73750;SHT30;62058;48.406;-4.514;2022-12-07T15:55:11;12.26;59.14
73750;SHT30;62058;48.406;-4.514;2022-12-07T15:57:37;12.12;59.59
73750;SHT30;62058;48.406;-4.514;2022-12-07T16:00:07;12.05;59.74
73750;SHT30;62058;48.406;-4.514;2022-12-07T16:02:34;11.96;60.18
73750;SHT30;62058;48.406;-4.514;2022-12-07T16:04:59;11.88;60.11
73750;SHT30;62058;48.406;-4.514;2022-12-07T16:07:24;11.78;60.27
73750;SHT30;62058;48.406;-4.514;2022-12-07T16:09:50;11.68;60.89
73750;SHT30;62058;48.406;-4.514;2022-12-07T16:12:15;11.58;61.51
73750;SHT30;62058;48.406;-4.514;2022-12-07T16:14:41;11.54;61.24
73750;SHT30;62058;48.406;-4.514;2022-12-07T16:17:10;11.48;61.80
73750;SHT30;62058;48.406;-4.514;2022-12-07T16:19:37;11.41;61.42
73750;SHT30;62058;48.406;-4.514;2022-12-07T16:22:03;11.34;62.81
73750;SHT30;62058;48.406;-4.514;2022-12-07T16:24:29;11.27;63.10
73750;SHT30;62058;48.406;-4.514;2022-12-07T16:26:55;11.20;62.66
73750;SHT30;62058;48.406;-4.514;2022-12-07T16:29:21;11.04;63.43
73750;SHT30;62058;48.406;-4.514;2022-12-07T16:31:48;10.95;63.68
73750;SHT30;62058;48.406;-4.514;2022-12-07T16:34:14;10.89;64.40
73750;SHT30;62058;48.406;-4.514;2022-12-07T16:36:39;10.83;64.18
73750;SHT30;62058;48.406;-4.514;2022-12-07T16:39:05;10.75;64.37
73750;SHT30;62058;48.406;-4.514;2022-12-07T16:41:31;10.63;64.58
73750;SHT30;62058;48.406;-4.514;2022-12-07T16:43:57;10.52;65.02
73750;SHT30;62058;48.406;-4.514;2022-12-07T16:46:26;10.41;65.69
73750;SHT30;62058;48.406;-4.514;2022-12-07T16:48:52;10.22;66.10
73750;SHT30;62058;48.406;-4.514;2022-12-07T16:51:17;10.09;66.61
73750;SHT30;62058;48.406;-4.514;2022-12-07T16:53:42;10.00;66.47
73750;SHT30;62058;48.406;-4.514;2022-12-07T16:56:12;9.90;66.74
73750;SHT30;62058;48.406;-4.514;2022-12-07T16:58:40;9.76;67.83
73750;SHT30;62058;48.406;-4.514;2022-12-07T17:01:13;9.64;68.20
73750;SHT30;62058;48.406;-4.514;2022-12-07T17:03:38;9.56;68.19
73750;SHT30;62058;48.406;-4.514;2022-12-07T17:06:14;9.47;68.20
73750;SHT30;62058;48.406;-4.514;2022-12-07T17:08:40;9.40;68.89
73750;SHT30;62058;48.406;-4.514;2022-12-07T17:11:14;9.33;69.23
73750;SHT30;62058;48.406;-4.514;2022-12-07T17:13:40;9.32;69.53
73750;SHT30;62058;48.406;-4.514;2022-12-07T17:16:25;9.32;69.40
73750;SHT30;62058;48.406;-4.514;2022-12-07T17:18:50;9.37;69.51
73750;SHT30;62058;48.406;-4.514;2022-12-07T17:21:16;9.40;68.89
73750;SHT30;62058;48.406;-4.514;2022-12-07T17:23:42;9.43;69.41
73750;SHT30;62058;48.406;-4.514;2022-12-07T17:26:10;9.50;67.66
73750;SHT30;62058;48.406;-4.514;2022-12-07T17:28:36;9.54;67.93
73750;SHT30;62058;48.406;-4.514;2022-12-07T17:31:05;9.51;68.93
73750;SHT30;62058;48.406;-4.514;2022-12-07T17:33:31;9.51;68.24
73750;SHT30;62058;48.406;-4.514;2022-12-07T17:35:56;9.53;69.43